Terminal Aerodrome Forecast
Issued by NWS Tulsa, OK

Home | Current Version | Previous Version | Text Only | Print | Product List | Glossary On
Versions: 1 2 3 4 5 6 7 8 9 10 11 12 13 14 15 16 17 18
000
FTUS44 KTSA 191700
TAFFSM
TAF
KFSM 191720Z 1918/2018 09006KT P6SM BKN025
     FM192000 10006KT P6SM SCT035
     FM200100 08003KT P6SM SCT250
      TEMPO 2009/2013 5SM BR
     FM201500 08004KT P6SM BKN050=

USA.gov is the U.S. government's official web portal to all federal, state and local government web resources and services.